createdAt,value
2022-11-05T00:00:48.475Z,3.40
2022-11-05T00:03:34.447Z,3.40
2022-11-05T00:06:20.182Z,3.40
2022-11-05T00:09:05.928Z,3.40
2022-11-05T00:12:11.504Z,3.30
2022-11-05T00:14:57.456Z,3.30
2022-11-05T00:17:24.669Z,3.30
2022-11-05T00:19:51.852Z,3.30
2022-11-05T00:22:37.354Z,3.30
2022-11-05T00:25:17.255Z,3.30
2022-11-05T00:27:52.475Z,3.30
2022-11-05T00:30:25.790Z,3.30
2022-11-05T00:32:53.780Z,3.30
2022-11-05T00:35:22.697Z,3.20
2022-11-05T00:37:50.549Z,3.20
2022-11-05T00:40:18.149Z,3.20
2022-11-05T00:43:04.118Z,3.10
2022-11-05T00:45:32.070Z,3.10
2022-11-05T00:48:17.656Z,3.10
2022-11-05T00:50:44.916Z,3.00
2022-11-05T00:53:12.465Z,3.00
2022-11-05T00:55:42.239Z,3.00
2022-11-05T00:58:11.954Z,3.00
2022-11-05T01:00:41.331Z,3.00
2022-11-05T01:03:11.580Z,3.00
2022-11-05T01:05:44.395Z,2.90
2022-11-05T01:08:12.502Z,3.00
2022-11-05T01:10:45.163Z,2.90
2022-11-05T01:13:13.708Z,2.90
2022-11-05T01:15:41.184Z,2.90
2022-11-05T01:18:08.496Z,2.90
2022-11-05T01:20:35.757Z,2.90
2022-11-05T01:23:03.197Z,2.90
2022-11-05T01:25:31.738Z,2.90
2022-11-05T01:27:58.980Z,2.90
2022-11-05T01:30:26.164Z,2.90
2022-11-05T01:32:53.351Z,2.90
2022-11-05T01:35:21.231Z,2.90
2022-11-05T01:37:48.935Z,2.80
2022-11-05T01:40:20.317Z,2.80
2022-11-05T01:42:47.594Z,2.80
2022-11-05T01:45:22.065Z,2.80
2022-11-05T01:48:11.512Z,2.80
2022-11-05T01:50:53.677Z,2.80
2022-11-05T01:53:36.689Z,2.80
2022-11-05T01:56:11.664Z,2.80
2022-11-05T01:58:55.824Z,2.80
2022-11-05T02:01:23.815Z,2.80
2022-11-05T02:03:55.332Z,2.80
2022-11-05T02:06:22.668Z,2.80
2022-11-05T02:08:59.229Z,2.80
2022-11-05T02:11:26.916Z,2.70
2022-11-05T02:13:54.012Z,2.80
2022-11-05T02:16:39.105Z,2.80
2022-11-05T02:19:18.204Z,2.80
2022-11-05T02:22:03.676Z,2.70
2022-11-05T02:25:02.327Z,2.70
2022-11-05T02:28:06.599Z,2.80
2022-11-05T02:30:42.589Z,2.80
2022-11-05T02:33:56.932Z,2.70
2022-11-05T02:36:24.159Z,2.70
2022-11-05T02:39:03.122Z,2.70
2022-11-05T02:42:04.951Z,2.70
2022-11-05T02:44:57.953Z,2.70
2022-11-05T02:47:43.267Z,2.60
2022-11-05T02:50:22.595Z,2.60
2022-11-05T02:53:01.487Z,2.60
2022-11-05T02:55:49.559Z,2.60
2022-11-05T02:58:16.882Z,2.60
2022-11-05T03:01:02.139Z,2.50
2022-11-05T03:03:40.665Z,2.50
2022-11-05T03:06:36.517Z,2.50
2022-11-05T03:09:15.616Z,2.50
2022-11-05T03:11:58.814Z,2.40
2022-11-05T03:14:49.069Z,2.40
2022-11-05T03:17:21.943Z,2.50
2022-11-05T03:20:18.033Z,2.50
2022-11-05T03:22:58.418Z,2.50
2022-11-05T03:25:28.662Z,2.50
2022-11-05T03:28:00.849Z,2.50
2022-11-05T03:30:28.206Z,2.50
2022-11-05T03:33:03.770Z,2.50
2022-11-05T03:35:40.180Z,2.40
2022-11-05T03:38:14.244Z,2.50
2022-11-05T03:40:42.946Z,2.50
2022-11-05T03:43:10.469Z,2.50
2022-11-05T03:46:01.198Z,2.50
2022-11-05T03:48:30.856Z,2.50
2022-11-05T03:51:19.756Z,2.50
2022-11-05T03:53:54.152Z,2.50
2022-11-05T03:56:39.763Z,2.60
2022-11-05T03:59:09.480Z,2.50
2022-11-05T04:01:38.180Z,2.60
2022-11-05T04:04:09.467Z,2.60
2022-11-05T04:06:55.295Z,2.60
2022-11-05T04:09:41.124Z,2.60
2022-11-05T04:12:30.941Z,2.60
2022-11-05T04:14:58.329Z,2.60
2022-11-05T04:17:25.565Z,2.60
2022-11-05T04:20:11.168Z,2.60
2022-11-05T04:22:56.987Z,2.60
2022-11-05T04:25:24.231Z,2.60
2022-11-05T04:27:51.960Z,2.60
2022-11-05T04:30:20.470Z,2.60
2022-11-05T04:33:05.592Z,2.60
2022-11-05T04:35:36.572Z,2.60
2022-11-05T04:38:08.488Z,2.60
2022-11-05T04:40:36.075Z,2.60
2022-11-05T04:43:04.078Z,2.60
2022-11-05T04:45:34.699Z,2.60
2022-11-05T04:48:04.962Z,2.60
2022-11-05T04:50:32.793Z,2.50
2022-11-05T04:53:00.075Z,2.50
2022-11-05T04:55:27.899Z,2.50
2022-11-05T04:57:55.695Z,2.50
2022-11-05T05:00:24.277Z,2.50
2022-11-05T05:02:51.857Z,2.50
2022-11-05T05:05:19.395Z,2.50
2022-11-05T05:07:46.606Z,2.50
2022-11-05T05:10:14.019Z,2.50
2022-11-05T05:12:41.207Z,2.50
2022-11-05T05:15:08.866Z,2.50
2022-11-05T05:17:36.040Z,2.50
2022-11-05T05:20:21.597Z,2.50
2022-11-05T05:22:53.431Z,2.50
2022-11-05T05:25:21.064Z,2.50
2022-11-05T05:27:48.299Z,2.50
2022-11-05T05:30:15.557Z,2.40
2022-11-05T05:32:42.744Z,2.40
2022-11-05T05:35:10.583Z,2.40
2022-11-05T05:37:37.901Z,2.40
2022-11-05T05:40:05.373Z,2.40
2022-11-05T05:42:32.813Z,2.40
2022-11-05T05:45:00.027Z,2.40
2022-11-05T05:47:27.438Z,2.50
2022-11-05T05:49:54.703Z,2.40
2022-11-05T05:52:21.904Z,2.40
2022-11-05T05:54:48.996Z,2.40
2022-11-05T05:57:16.211Z,2.40
2022-11-05T05:59:43.333Z,2.40
2022-11-05T06:02:12.078Z,2.40
2022-11-05T06:04:39.333Z,2.40
2022-11-05T06:07:07.830Z,2.40
2022-11-05T06:09:34.990Z,2.40
2022-11-05T06:12:02.332Z,2.40
2022-11-05T06:14:29.505Z,2.40
2022-11-05T06:16:56.694Z,2.40
2022-11-05T06:19:24.236Z,2.40
2022-11-05T06:21:51.479Z,2.40
2022-11-05T06:24:18.612Z,2.40
2022-11-05T06:26:45.934Z,2.40
2022-11-05T06:29:13.132Z,2.40
2022-11-05T06:31:40.805Z,2.40
2022-11-05T06:34:08.140Z,2.30
2022-11-05T06:36:35.313Z,2.30
2022-11-05T06:39:02.542Z,2.30
2022-11-05T06:41:29.877Z,2.30
2022-11-05T06:43:57.018Z,2.30
2022-11-05T06:46:24.240Z,2.40
2022-11-05T06:48:51.503Z,2.30
2022-11-05T06:51:18.951Z,2.30
2022-11-05T06:53:46.273Z,2.30
2022-11-05T06:56:13.652Z,2.30
2022-11-05T06:58:40.889Z,2.40
2022-11-05T07:01:10.178Z,2.40
2022-11-05T07:03:38.511Z,2.40
2022-11-05T07:06:07.275Z,2.40
2022-11-05T07:08:35.376Z,2.40
2022-11-05T07:11:02.712Z,2.40
2022-11-05T07:13:30.089Z,2.40
2022-11-05T07:15:57.698Z,2.50
2022-11-05T07:18:25.086Z,2.50
2022-11-05T07:20:52.332Z,2.50
2022-11-05T07:23:19.601Z,2.50
2022-11-05T07:25:47.157Z,2.60
2022-11-05T07:28:14.751Z,2.60
2022-11-05T07:30:42.001Z,2.60
2022-11-05T07:33:09.852Z,2.60
2022-11-05T07:35:37.311Z,2.70
2022-11-05T07:38:04.739Z,2.70
2022-11-05T07:40:32.110Z,2.70
2022-11-05T07:43:01.256Z,2.70
2022-11-05T07:45:30.870Z,2.80
2022-11-05T07:48:00.759Z,2.80
2022-11-05T07:50:30.922Z,2.80
2022-11-05T07:53:15.990Z,2.80
2022-11-05T07:55:44.196Z,2.80
2022-11-05T07:58:11.742Z,2.90
2022-11-05T08:00:39.488Z,2.90
2022-11-05T08:03:08.920Z,3.00
2022-11-05T08:05:39.004Z,3.00
2022-11-05T08:08:08.406Z,3.00
2022-11-05T08:10:36.563Z,3.00
2022-11-05T08:13:04.463Z,3.10
2022-11-05T08:15:32.592Z,3.10
2022-11-05T08:18:05.912Z,3.20
2022-11-05T08:20:34.501Z,3.20
2022-11-05T08:23:01.682Z,3.30
2022-11-05T08:25:29.275Z,3.30
2022-11-05T08:28:05.591Z,3.40
2022-11-05T08:30:33.223Z,3.50
2022-11-05T08:33:05.685Z,3.60
2022-11-05T08:35:35.824Z,3.60
2022-11-05T08:38:06.608Z,3.70
2022-11-05T08:40:35.787Z,3.80
2022-11-05T08:43:05.611Z,3.80
2022-11-05T08:45:33.316Z,3.90
2022-11-05T08:48:12.517Z,3.90
2022-11-05T08:50:40.058Z,4.00
2022-11-05T08:53:08.365Z,4.00
2022-11-05T08:55:36.002Z,4.10
2022-11-05T08:58:05.870Z,4.20
2022-11-05T09:00:36.230Z,4.20
2022-11-05T09:03:05.732Z,4.30
2022-11-05T09:05:38.331Z,4.40
2022-11-05T09:08:07.630Z,4.40
2022-11-05T09:10:35.489Z,4.50
2022-11-05T09:13:04.407Z,4.50
2022-11-05T09:15:31.860Z,4.50
2022-11-05T09:17:59.561Z,4.50
2022-11-05T09:20:26.800Z,4.50
2022-11-05T09:22:54.212Z,4.50
2022-11-05T09:25:21.473Z,4.50
2022-11-05T09:27:48.682Z,4.50
2022-11-05T09:30:16.407Z,4.50
2022-11-05T09:32:43.588Z,4.50
2022-11-05T09:35:10.901Z,4.50
2022-11-05T09:37:39.058Z,4.50
2022-11-05T09:40:07.056Z,4.60
2022-11-05T09:42:42.407Z,4.60
2022-11-05T09:45:17.028Z,4.60
2022-11-05T09:47:49.522Z,4.70
2022-11-05T09:50:40.537Z,4.70
2022-11-05T09:53:10.860Z,4.80
2022-11-05T09:55:39.879Z,4.80
2022-11-05T09:58:23.186Z,4.90
2022-11-05T10:00:54.125Z,4.90
2022-11-05T10:03:24.604Z,5.00
2022-11-05T10:05:53.536Z,5.00
2022-11-05T10:08:29.231Z,5.00
2022-11-05T10:11:05.469Z,5.10
2022-11-05T10:13:32.618Z,5.10
2022-11-05T10:16:04.287Z,5.10
2022-11-05T10:18:41.719Z,5.10
2022-11-05T10:21:32.310Z,5.10
2022-11-05T10:24:15.981Z,5.10
2022-11-05T10:26:46.306Z,5.10
2022-11-05T10:29:16.282Z,5.00
2022-11-05T10:31:44.414Z,5.00
2022-11-05T10:34:13.959Z,5.00
2022-11-05T10:36:41.330Z,4.90
2022-11-05T10:39:18.707Z,4.90
2022-11-05T10:41:49.046Z,4.90
2022-11-05T10:44:26.834Z,4.90
2022-11-05T10:47:09.043Z,4.90
2022-11-05T10:49:58.470Z,4.80
2022-11-05T10:52:38.082Z,4.80
2022-11-05T10:55:21.240Z,4.80
2022-11-05T10:57:49.931Z,4.80
2022-11-05T11:00:17.122Z,4.80
2022-11-05T11:02:51.311Z,4.80
2022-11-05T11:05:20.620Z,4.80
2022-11-05T11:08:05.230Z,4.80
2022-11-05T11:10:39.884Z,4.80
2022-11-05T11:13:18.575Z,4.80
2022-11-05T11:15:45.785Z,4.80
2022-11-05T11:18:40.316Z,4.80
2022-11-05T11:21:15.075Z,4.80
2022-11-05T11:23:43.860Z,4.80
2022-11-05T11:26:13.002Z,4.80
2022-11-05T11:29:21.177Z,4.70
2022-11-05T11:31:48.428Z,4.80
2022-11-05T11:34:27.296Z,4.80
2022-11-05T11:37:01.800Z,4.70
2022-11-05T11:39:30.778Z,4.70
2022-11-05T11:42:02.021Z,4.70
2022-11-05T11:44:32.928Z,4.70
2022-11-05T11:47:05.071Z,4.70
2022-11-05T11:49:52.397Z,4.70
2022-11-05T11:52:31.181Z,4.70
2022-11-05T11:55:13.655Z,4.60
2022-11-05T11:58:05.346Z,4.60
2022-11-05T12:00:39.941Z,4.60
2022-11-05T12:03:38.321Z,4.70
2022-11-05T12:06:05.673Z,4.60
2022-11-05T12:09:06.542Z,4.70
2022-11-05T12:11:51.028Z,4.70
2022-11-05T12:14:32.601Z,4.70
2022-11-05T12:17:26.856Z,4.70
2022-11-05T12:20:04.736Z,4.70
2022-11-05T12:22:56.212Z,4.70
2022-11-05T12:25:36.688Z,4.70
2022-11-05T12:28:12.790Z,4.80
2022-11-05T12:31:02.898Z,4.80
2022-11-05T12:33:55.773Z,4.80
2022-11-05T12:36:55.093Z,4.80
2022-11-05T12:39:38.463Z,4.80
2022-11-05T12:42:42.953Z,4.70
2022-11-05T12:45:16.313Z,4.70
2022-11-05T12:48:01.829Z,4.70
2022-11-05T12:50:34.416Z,4.70
2022-11-05T12:53:38.864Z,4.60
2022-11-05T12:56:30.848Z,4.60
2022-11-05T12:59:19.775Z,4.60
2022-11-05T13:02:15.230Z,4.60
2022-11-05T13:04:53.472Z,4.60
2022-11-05T13:07:30.542Z,4.60
2022-11-05T13:10:06.348Z,4.60
2022-11-05T13:12:37.395Z,4.50
2022-11-05T13:15:19.453Z,4.60
2022-11-05T13:18:00.116Z,4.50
2022-11-05T13:20:31.970Z,4.50
2022-11-05T13:23:13.982Z,4.50
2022-11-05T13:25:48.695Z,4.50
2022-11-05T13:28:15.803Z,4.50
2022-11-05T13:30:53.025Z,4.50
2022-11-05T13:33:47.901Z,4.50
2022-11-05T13:36:33.435Z,4.40
2022-11-05T13:39:18.382Z,4.50
2022-11-05T13:42:12.976Z,4.40
2022-11-05T13:45:08.018Z,4.40
2022-11-05T13:47:58.995Z,4.40
2022-11-05T13:50:44.580Z,4.30
2022-11-05T13:53:30.268Z,4.30
2022-11-05T13:56:16.084Z,4.30
2022-11-05T13:59:04.767Z,4.20
2022-11-05T14:01:41.127Z,4.20
2022-11-05T14:04:19.142Z,4.10
2022-11-05T14:06:47.063Z,4.10
2022-11-05T14:09:26.096Z,4.10
2022-11-05T14:11:57.205Z,4.10
2022-11-05T14:14:31.103Z,4.10
2022-11-05T14:17:10.311Z,4.00
2022-11-05T14:20:04.373Z,4.00
2022-11-05T14:22:31.514Z,4.00
2022-11-05T14:25:23.186Z,3.90
2022-11-05T14:27:52.774Z,3.90
2022-11-05T14:30:41.133Z,3.90
2022-11-05T14:33:40.543Z,3.80
2022-11-05T14:36:28.576Z,3.80
2022-11-05T14:39:04.308Z,3.80
2022-11-05T14:41:31.957Z,3.80
2022-11-05T14:44:05.352Z,3.80
2022-11-05T14:46:48.247Z,3.80
2022-11-05T14:49:23.243Z,3.80
2022-11-05T14:51:53.605Z,3.70
2022-11-05T14:54:36.620Z,3.70
2022-11-05T14:57:04.134Z,3.70
2022-11-05T14:59:33.064Z,3.70
2022-11-05T15:02:12.032Z,3.70
2022-11-05T15:04:45.841Z,3.60
2022-11-05T15:07:32.190Z,3.70
2022-11-05T15:10:17.571Z,3.70
2022-11-05T15:12:54.227Z,3.70
2022-11-05T15:15:30.272Z,3.70
2022-11-05T15:18:19.348Z,3.70
2022-11-05T15:20:49.753Z,3.70
2022-11-05T15:23:21.330Z,3.70
2022-11-05T15:26:05.670Z,3.60
2022-11-05T15:28:36.030Z,3.60
2022-11-05T15:31:06.851Z,3.60
2022-11-05T15:33:34.151Z,3.60
2022-11-05T15:36:30.148Z,3.60
2022-11-05T15:41:47.239Z,3.60
2022-11-05T15:44:27.573Z,3.60
2022-11-05T15:47:19.782Z,3.60
2022-11-05T15:49:55.021Z,3.60
2022-11-05T15:52:25.300Z,3.50
2022-11-05T15:55:08.841Z,3.60
2022-11-05T15:57:40.068Z,3.60
2022-11-05T16:00:16.101Z,3.50
2022-11-05T16:02:43.756Z,3.50
2022-11-05T16:05:14.512Z,3.60
2022-11-05T16:07:44.104Z,3.50
2022-11-05T16:10:46.890Z,3.60
2022-11-05T16:13:31.974Z,3.50
2022-11-05T16:16:03.238Z,3.60
2022-11-05T16:18:35.601Z,3.60
2022-11-05T16:21:08.949Z,3.60
2022-11-05T16:23:57.507Z,3.60
2022-11-05T16:27:01.893Z,3.60
2022-11-05T16:29:28.611Z,3.60
2022-11-05T16:31:57.394Z,3.60
2022-11-05T16:34:41.487Z,3.60
2022-11-05T16:37:15.558Z,3.60
2022-11-05T16:39:42.757Z,3.60
2022-11-05T16:42:26.348Z,3.60
2022-11-05T16:44:55.944Z,3.60
2022-11-05T16:47:23.693Z,3.60
2022-11-05T16:49:51.154Z,3.70
2022-11-05T16:52:18.794Z,3.70
2022-11-05T16:54:46.097Z,3.70
2022-11-05T16:57:33.539Z,3.70
2022-11-05T17:00:01.522Z,3.70
2022-11-05T17:02:28.942Z,3.70
2022-11-05T17:04:56.412Z,3.70
2022-11-05T17:07:23.950Z,3.70
2022-11-05T17:09:51.154Z,3.60
2022-11-05T17:12:18.301Z,3.70
2022-11-05T17:14:45.493Z,3.60
2022-11-05T17:17:12.650Z,3.60
2022-11-05T17:19:42.650Z,3.60
2022-11-05T17:22:10.170Z,3.60
2022-11-05T17:24:37.741Z,3.60
2022-11-05T17:27:04.959Z,3.60
2022-11-05T17:29:32.152Z,3.60
2022-11-05T17:31:59.465Z,3.60
2022-11-05T17:34:26.709Z,3.50
2022-11-05T17:36:53.896Z,3.60
2022-11-05T17:39:21.190Z,3.50
2022-11-05T17:41:49.136Z,3.50
2022-11-05T17:44:16.287Z,3.50
2022-11-05T17:46:44.780Z,3.50
2022-11-05T17:49:11.922Z,3.50
2022-11-05T17:51:39.072Z,3.50
2022-11-05T17:54:07.804Z,3.50
2022-11-05T17:56:40.251Z,3.50
2022-11-05T17:59:10.526Z,3.40
2022-11-05T18:01:43.154Z,3.40
2022-11-05T18:04:11.090Z,3.40
2022-11-05T18:06:39.950Z,3.40
2022-11-05T18:09:09.111Z,3.40
2022-11-05T18:11:37.203Z,3.30
2022-11-05T18:14:04.682Z,3.30
2022-11-05T18:16:31.833Z,3.30
2022-11-05T18:18:58.935Z,3.30
2022-11-05T18:21:26.102Z,3.30
2022-11-05T18:23:53.416Z,3.30
2022-11-05T18:26:20.674Z,3.30
2022-11-05T18:28:47.880Z,3.30
2022-11-05T18:31:18.433Z,3.30
2022-11-05T18:33:46.080Z,3.30
2022-11-05T18:36:20.994Z,3.30
2022-11-05T18:38:48.767Z,3.30
2022-11-05T18:41:16.703Z,3.30
2022-11-05T18:43:44.459Z,3.30
2022-11-05T18:46:29.361Z,3.30
2022-11-05T18:49:01.181Z,3.20
2022-11-05T18:51:28.604Z,3.30
2022-11-05T18:53:56.118Z,3.30
2022-11-05T18:56:24.123Z,3.30
2022-11-05T18:59:14.833Z,3.30
2022-11-05T19:01:41.558Z,3.30
2022-11-05T19:04:08.731Z,3.30
2022-11-05T19:06:36.853Z,3.30
2022-11-05T19:09:05.669Z,3.40
2022-11-05T19:11:32.936Z,3.40
2022-11-05T19:14:00.455Z,3.40
2022-11-05T19:16:29.650Z,3.50
2022-11-05T19:19:04.548Z,3.40
2022-11-05T19:21:32.405Z,3.50
2022-11-05T19:24:01.734Z,3.50
2022-11-05T19:26:30.003Z,3.50
2022-11-05T19:29:02.290Z,3.50
2022-11-05T19:31:30.511Z,3.50
2022-11-05T19:33:58.119Z,3.50
2022-11-05T19:36:25.775Z,3.50
2022-11-05T19:38:57.891Z,3.50
2022-11-05T19:41:26.000Z,3.50
2022-11-05T19:43:58.210Z,3.40
2022-11-05T19:46:25.883Z,3.40
2022-11-05T19:48:53.502Z,3.40
2022-11-05T19:51:29.709Z,3.40
2022-11-05T19:53:57.196Z,3.40
2022-11-05T19:56:27.827Z,3.40
2022-11-05T19:58:54.826Z,3.40
2022-11-05T20:01:23.622Z,3.40
2022-11-05T20:03:51.602Z,3.40
2022-11-05T20:06:25.911Z,3.40
2022-11-05T20:09:20.013Z,3.40
2022-11-05T20:11:41.038Z,3.40
2022-11-05T20:14:10.029Z,3.40
2022-11-05T20:16:39.198Z,3.40
2022-11-05T20:19:12.933Z,3.40
2022-11-05T20:21:40.202Z,3.30
2022-11-05T20:24:08.131Z,3.30
2022-11-05T20:26:35.600Z,3.30
2022-11-05T20:29:02.859Z,3.30
2022-11-05T20:31:30.495Z,3.30
2022-11-05T20:33:57.801Z,3.30
2022-11-05T20:36:26.116Z,3.30
2022-11-05T20:38:58.412Z,3.30
2022-11-05T20:41:26.371Z,3.30
2022-11-05T20:43:53.624Z,3.20
2022-11-05T20:46:22.684Z,3.20
2022-11-05T20:48:50.036Z,3.20
2022-11-05T20:51:23.437Z,3.20
2022-11-05T20:53:58.501Z,3.20
2022-11-05T20:56:29.671Z,3.20
2022-11-05T20:58:58.679Z,3.20
2022-11-05T21:01:28.103Z,3.20
2022-11-05T21:03:56.025Z,3.20
2022-11-05T21:06:23.634Z,3.20
2022-11-05T21:08:51.999Z,3.20
2022-11-05T21:11:19.824Z,3.20
2022-11-05T21:13:47.284Z,3.20
2022-11-05T21:16:18.450Z,3.10
2022-11-05T21:18:47.000Z,3.10
2022-11-05T21:21:19.747Z,3.20
2022-11-05T21:23:47.451Z,3.20
2022-11-05T21:26:15.455Z,3.20
2022-11-05T21:28:43.000Z,3.20
2022-11-05T21:31:10.671Z,3.20
2022-11-05T21:33:38.331Z,3.20
2022-11-05T21:36:11.076Z,3.20
2022-11-05T21:38:39.155Z,3.20
2022-11-05T21:41:07.430Z,3.20
2022-11-05T21:43:34.912Z,3.20
2022-11-05T21:46:03.484Z,3.20
2022-11-05T21:48:31.024Z,3.20
2022-11-05T21:51:16.866Z,3.20
2022-11-05T21:54:02.897Z,3.20
2022-11-05T21:56:48.828Z,3.20
2022-11-05T21:59:37.513Z,3.20
2022-11-05T22:02:05.686Z,3.30
2022-11-05T22:04:35.757Z,3.30
2022-11-05T22:07:03.960Z,3.30
2022-11-05T22:09:31.450Z,3.30
2022-11-05T22:11:59.201Z,3.30
2022-11-05T22:14:27.229Z,3.30
2022-11-05T22:16:54.925Z,3.30
2022-11-05T22:19:22.422Z,3.30
2022-11-05T22:21:49.683Z,3.40
2022-11-05T22:24:16.907Z,3.30
2022-11-05T22:26:44.938Z,3.40
2022-11-05T22:29:12.573Z,3.40
2022-11-05T22:31:39.789Z,3.40
2022-11-05T22:34:07.810Z,3.40
2022-11-05T22:36:35.694Z,3.40
2022-11-05T22:39:04.073Z,3.40
2022-11-05T22:41:31.447Z,3.40
2022-11-05T22:43:58.992Z,3.40
2022-11-05T22:46:27.477Z,3.40
2022-11-05T22:48:56.414Z,3.40
2022-11-05T22:51:32.344Z,3.40
2022-11-05T22:53:59.847Z,3.40
2022-11-05T22:56:31.305Z,3.50
2022-11-05T22:58:59.021Z,3.50
2022-11-05T23:01:26.858Z,3.40
2022-11-05T23:03:55.964Z,3.40
2022-11-05T23:06:50.152Z,3.40
2022-11-05T23:09:53.121Z,3.40
2022-11-05T23:12:38.005Z,3.40
2022-11-05T23:15:07.555Z,3.40
2022-11-05T23:17:53.327Z,3.40
2022-11-05T23:20:41.025Z,3.40
2022-11-05T23:23:31.442Z,3.40
2022-11-05T23:26:21.744Z,3.40
2022-11-05T23:28:48.951Z,3.40
2022-11-05T23:31:34.937Z,3.40
2022-11-05T23:34:02.163Z,3.40
2022-11-05T23:36:47.765Z,3.40
2022-11-05T23:39:15.067Z,3.40
2022-11-05T23:42:00.972Z,3.40
2022-11-05T23:44:46.560Z,3.40
2022-11-05T23:47:32.521Z,3.40
2022-11-05T23:49:59.715Z,3.40
2022-11-05T23:52:26.869Z,3.40
2022-11-05T23:54:54.126Z,3.40
2022-11-05T23:57:21.268Z,3.40
2022-11-05T23:59:48.391Z,3.40
